sensor_id;sensor_type;location;lat;lon;timestamp;pressure;altitude;pressure_sealevel;temperature;humidity
74893;BME280;63446;56.272;43.922;2024-01-30T00:00:53;101360.28;;;1.03;61.16
74893;BME280;63446;56.272;43.922;2024-01-30T00:03:19;101355.88;;;1.03;61.10
74893;BME280;63446;56.272;43.922;2024-01-30T00:05:45;101341.06;;;1.04;61.28
74893;BME280;63446;56.272;43.922;2024-01-30T00:08:11;101344.28;;;1.06;61.10
74893;BME280;63446;56.272;43.922;2024-01-30T00:10:37;101350.31;;;1.06;61.17
74893;BME280;63446;56.272;43.922;2024-01-30T00:13:03;101339.72;;;1.08;61.11
74893;BME280;63446;56.272;43.922;2024-01-30T00:15:29;101333.69;;;1.07;61.15
74893;BME280;63446;56.272;43.922;2024-01-30T00:17:54;101328.31;;;1.09;61.09
74893;BME280;63446;56.272;43.922;2024-01-30T00:20:20;101328.31;;;1.09;61.22
74893;BME280;63446;56.272;43.922;2024-01-30T00:22:46;101327.44;;;1.02;61.27
74893;BME280;63446;56.272;43.922;2024-01-30T00:25:14;101331.09;;;1.07;61.17
74893;BME280;63446;56.272;43.922;2024-01-30T00:27:40;101323.28;;;1.07;61.39
74893;BME280;63446;56.272;43.922;2024-01-30T00:30:06;101324.91;;;1.08;61.33
74893;BME280;63446;56.272;43.922;2024-01-30T00:32:32;101313.06;;;1.06;61.30
74893;BME280;63446;56.272;43.922;2024-01-30T00:34:58;101312.69;;;1.09;61.24
74893;BME280;63446;56.272;43.922;2024-01-30T00:37:24;101313.50;;;1.09;61.33
74893;BME280;63446;56.272;43.922;2024-01-30T00:39:50;101309.72;;;1.12;61.40
74893;BME280;63446;56.272;43.922;2024-01-30T00:42:16;101303.53;;;1.13;61.41
74893;BME280;63446;56.272;43.922;2024-01-30T00:44:41;101302.53;;;1.14;61.30
74893;BME280;63446;56.272;43.922;2024-01-30T00:47:08;101299.94;;;1.14;61.40
74893;BME280;63446;56.272;43.922;2024-01-30T00:49:34;101304.13;;;1.15;61.27
74893;BME280;63446;56.272;43.922;2024-01-30T00:52:00;101297.16;;;1.15;61.31
74893;BME280;63446;56.272;43.922;2024-01-30T00:54:25;101300.56;;;1.16;61.31
74893;BME280;63446;56.272;43.922;2024-01-30T00:56:51;101299.56;;;1.17;61.34
74893;BME280;63446;56.272;43.922;2024-01-30T00:59:17;101302.97;;;1.17;61.27
74893;BME280;63446;56.272;43.922;2024-01-30T01:01:43;101295.16;;;1.17;61.46
74893;BME280;63446;56.272;43.922;2024-01-30T01:04:08;101306.38;;;1.18;61.31
74893;BME280;63446;56.272;43.922;2024-01-30T01:06:34;101296.59;;;1.20;61.45
74893;BME280;63446;56.272;43.922;2024-01-30T01:09:00;101298.22;;;1.21;61.49
74893;BME280;63446;56.272;43.922;2024-01-30T01:11:26;101298.00;;;1.22;61.46
74893;BME280;63446;56.272;43.922;2024-01-30T01:13:53;101299.66;;;1.24;61.47
74893;BME280;63446;56.272;43.922;2024-01-30T01:16:19;101291.03;;;1.23;61.46
74893;BME280;63446;56.272;43.922;2024-01-30T01:18:44;101300.44;;;1.24;61.48
74893;BME280;63446;56.272;43.922;2024-01-30T01:21:11;101291.63;;;1.25;61.39
74893;BME280;63446;56.272;43.922;2024-01-30T01:23:37;101287.25;;;1.26;61.45
74893;BME280;63446;56.272;43.922;2024-01-30T01:26:02;101293.25;;;1.26;61.44
74893;BME280;63446;56.272;43.922;2024-01-30T01:28:28;101289.69;;;1.27;61.42
74893;BME280;63446;56.272;43.922;2024-01-30T01:30:54;101288.69;;;1.28;61.56
74893;BME280;63446;56.272;43.922;2024-01-30T01:33:24;101279.88;;;1.29;61.42
74893;BME280;63446;56.272;43.922;2024-01-30T01:35:51;101278.06;;;1.30;61.50
74893;BME280;63446;56.272;43.922;2024-01-30T01:38:17;101275.47;;;1.30;61.37
74893;BME280;63446;56.272;43.922;2024-01-30T01:40:43;101271.25;;;1.29;61.56
74893;BME280;63446;56.272;43.922;2024-01-30T01:43:09;101274.84;;;1.28;61.54
74893;BME280;63446;56.272;43.922;2024-01-30T01:45:35;101274.66;;;1.29;61.53
74893;BME280;63446;56.272;43.922;2024-01-30T01:48:02;101273.84;;;1.29;61.69
74893;BME280;63446;56.272;43.922;2024-01-30T01:50:28;101268.00;;;1.27;61.51
74893;BME280;63446;56.272;43.922;2024-01-30T01:52:54;101272.84;;;1.30;61.57
74893;BME280;63446;56.272;43.922;2024-01-30T01:55:21;101253.81;;;1.29;61.56
74893;BME280;63446;56.272;43.922;2024-01-30T01:57:52;101265.84;;;1.30;61.66
74893;BME280;63446;56.272;43.922;2024-01-30T02:00:19;101259.66;;;1.31;61.73
74893;BME280;63446;56.272;43.922;2024-01-30T02:02:46;101255.44;;;1.30;61.73
74893;BME280;63446;56.272;43.922;2024-01-30T02:05:12;101266.13;;;1.35;61.83
74893;BME280;63446;56.272;43.922;2024-01-30T02:07:39;101260.91;;;1.35;61.87
74893;BME280;63446;56.272;43.922;2024-01-30T02:10:07;101258.91;;;1.37;61.85
74893;BME280;63446;56.272;43.922;2024-01-30T02:12:33;101252.69;;;1.38;61.80
74893;BME280;63446;56.272;43.922;2024-01-30T02:14:59;101255.31;;;1.38;61.90
74893;BME280;63446;56.272;43.922;2024-01-30T02:17:25;101252.69;;;1.38;61.77
74893;BME280;63446;56.272;43.922;2024-01-30T02:19:52;101245.72;;;1.39;61.92
74893;BME280;63446;56.272;43.922;2024-01-30T02:22:19;101249.28;;;1.38;61.89
74893;BME280;63446;56.272;43.922;2024-01-30T02:24:45;101253.34;;;1.40;61.86
74893;BME280;63446;56.272;43.922;2024-01-30T02:27:11;101252.53;;;1.40;61.84
74893;BME280;63446;56.272;43.922;2024-01-30T02:29:37;101246.97;;;1.43;62.01
74893;BME280;63446;56.272;43.922;2024-01-30T02:32:04;101258.19;;;1.43;61.97
74893;BME280;63446;56.272;43.922;2024-01-30T02:34:30;101241.47;;;1.38;61.96
74893;BME280;63446;56.272;43.922;2024-01-30T02:36:55;101264.19;;;1.44;62.01
74893;BME280;63446;56.272;43.922;2024-01-30T02:39:21;101262.59;;;1.43;62.00
74893;BME280;63446;56.272;43.922;2024-01-30T02:41:47;101258.19;;;1.43;61.98
74893;BME280;63446;56.272;43.922;2024-01-30T02:44:13;101257.53;;;1.41;61.99
74893;BME280;63446;56.272;43.922;2024-01-30T02:46:39;101265.34;;;1.41;61.95
74893;BME280;63446;56.272;43.922;2024-01-30T02:49:04;101255.75;;;1.42;62.10
74893;BME280;63446;56.272;43.922;2024-01-30T02:51:30;101251.38;;;1.42;62.22
74893;BME280;63446;56.272;43.922;2024-01-30T02:53:56;101254.56;;;1.44;62.23
74893;BME280;63446;56.272;43.922;2024-01-30T02:56:22;101250.38;;;1.43;62.21
74893;BME280;63446;56.272;43.922;2024-01-30T02:58:47;101247.38;;;1.46;62.22
74893;BME280;63446;56.272;43.922;2024-01-30T03:01:13;101245.38;;;1.49;62.04
74893;BME280;63446;56.272;43.922;2024-01-30T03:03:40;101238.56;;;1.48;62.12
74893;BME280;63446;56.272;43.922;2024-01-30T03:06:06;101244.59;;;1.48;62.08
74893;BME280;63446;56.272;43.922;2024-01-30T03:08:32;101250.59;;;1.49;62.20
74893;BME280;63446;56.272;43.922;2024-01-30T03:11:00;101244.38;;;1.50;62.32
74893;BME280;63446;56.272;43.922;2024-01-30T03:13:26;101248.63;;;1.51;62.30
74893;BME280;63446;56.272;43.922;2024-01-30T03:15:52;101245.81;;;1.52;62.37
74893;BME280;63446;56.272;43.922;2024-01-30T03:18:19;101248.63;;;1.51;62.35
74893;BME280;63446;56.272;43.922;2024-01-30T03:20:45;101248.22;;;1.54;62.46
74893;BME280;63446;56.272;43.922;2024-01-30T03:23:10;101244.81;;;1.53;62.39
74893;BME280;63446;56.272;43.922;2024-01-30T03:25:36;101248.06;;;1.55;62.35
74893;BME280;63446;56.272;43.922;2024-01-30T03:28:02;101245.47;;;1.55;62.45
74893;BME280;63446;56.272;43.922;2024-01-30T03:30:28;101242.66;;;1.57;62.43
74893;BME280;63446;56.272;43.922;2024-01-30T03:32:54;101244.28;;;1.58;62.48
74893;BME280;63446;56.272;43.922;2024-01-30T03:35:20;101234.47;;;1.60;62.61
74893;BME280;63446;56.272;43.922;2024-01-30T03:37:46;101233.47;;;1.61;62.61
74893;BME280;63446;56.272;43.922;2024-01-30T03:40:12;101241.13;;;1.62;62.63
74893;BME280;63446;56.272;43.922;2024-01-30T03:42:38;101243.53;;;1.64;62.64
74893;BME280;63446;56.272;43.922;2024-01-30T03:45:04;101234.69;;;1.65;62.81
74893;BME280;63446;56.272;43.922;2024-01-30T03:47:32;101231.94;;;1.66;62.82
74893;BME280;63446;56.272;43.922;2024-01-30T03:49:58;101230.91;;;1.67;62.67
74893;BME280;63446;56.272;43.922;2024-01-30T03:52:24;101236.13;;;1.67;62.73
74893;BME280;63446;56.272;43.922;2024-01-30T03:54:50;101238.38;;;1.70;62.87
74893;BME280;63446;56.272;43.922;2024-01-30T03:57:15;101230.34;;;1.72;62.85
74893;BME280;63446;56.272;43.922;2024-01-30T03:59:42;101221.56;;;1.73;62.79
74893;BME280;63446;56.272;43.922;2024-01-30T04:02:08;101223.75;;;1.76;62.76
74893;BME280;63446;56.272;43.922;2024-01-30T04:04:33;101215.16;;;1.76;62.83
74893;BME280;63446;56.272;43.922;2024-01-30T04:06:59;101211.31;;;1.71;62.84
74893;BME280;63446;56.272;43.922;2024-01-30T04:09:25;101220.78;;;1.79;62.98
74893;BME280;63446;56.272;43.922;2024-01-30T04:11:54;101216.38;;;1.80;62.99
74893;BME280;63446;56.272;43.922;2024-01-30T04:14:19;101217.19;;;1.80;62.92
74893;BME280;63446;56.272;43.922;2024-01-30T04:16:45;101209.94;;;1.76;62.86
74893;BME280;63446;56.272;43.922;2024-01-30T04:19:11;101206.75;;;1.80;62.90
74893;BME280;63446;56.272;43.922;2024-01-30T04:21:37;101192.13;;;1.79;63.00
74893;BME280;63446;56.272;43.922;2024-01-30T04:24:03;101207.38;;;1.82;63.08
74893;BME280;63446;56.272;43.922;2024-01-30T04:26:29;101222.81;;;1.84;63.07
74893;BME280;63446;56.272;43.922;2024-01-30T04:28:56;101217.44;;;1.85;63.08
74893;BME280;63446;56.272;43.922;2024-01-30T04:31:21;101214.03;;;1.85;63.07
74893;BME280;63446;56.272;43.922;2024-01-30T04:33:47;101221.66;;;1.86;63.12
74893;BME280;63446;56.272;43.922;2024-01-30T04:36:13;101224.06;;;1.88;63.11
74893;BME280;63446;56.272;43.922;2024-01-30T04:38:39;101225.69;;;1.89;63.16
74893;BME280;63446;56.272;43.922;2024-01-30T04:41:05;101222.88;;;1.90;63.34
74893;BME280;63446;56.272;43.922;2024-01-30T04:43:30;101221.88;;;1.91;63.29
74893;BME280;63446;56.272;43.922;2024-01-30T04:45:57;101220.06;;;1.92;63.22
74893;BME280;63446;56.272;43.922;2024-01-30T04:48:23;101209.63;;;1.92;63.22
74893;BME280;63446;56.272;43.922;2024-01-30T04:50:49;101204.25;;;1.93;63.46
74893;BME280;63446;56.272;43.922;2024-01-30T04:53:14;101214.69;;;1.93;63.59
74893;BME280;63446;56.272;43.922;2024-01-30T04:55:40;101221.31;;;1.96;63.76
74893;BME280;63446;56.272;43.922;2024-01-30T04:58:07;101219.53;;;1.97;63.71
74893;BME280;63446;56.272;43.922;2024-01-30T05:00:33;101206.91;;;2.00;63.95
74893;BME280;63446;56.272;43.922;2024-01-30T05:02:59;101202.50;;;2.01;64.14
74893;BME280;63446;56.272;43.922;2024-01-30T05:05:25;101205.72;;;2.03;64.17
74893;BME280;63446;56.272;43.922;2024-01-30T05:07:52;101210.75;;;2.04;64.26
74893;BME280;63446;56.272;43.922;2024-01-30T05:10:17;101208.75;;;2.06;64.36
74893;BME280;63446;56.272;43.922;2024-01-30T05:12:44;101205.97;;;2.08;64.34
74893;BME280;63446;56.272;43.922;2024-01-30T05:15:10;101202.50;;;2.07;64.42
74893;BME280;63446;56.272;43.922;2024-01-30T05:17:36;101205.75;;;2.09;64.45
74893;BME280;63446;56.272;43.922;2024-01-30T05:20:02;101202.34;;;2.09;64.45
74893;BME280;63446;56.272;43.922;2024-01-30T05:22:30;101203.94;;;2.10;64.55
74893;BME280;63446;56.272;43.922;2024-01-30T05:24:56;101210.75;;;2.11;64.57
74893;BME280;63446;56.272;43.922;2024-01-30T05:27:23;101201.75;;;2.13;64.53
74893;BME280;63446;56.272;43.922;2024-01-30T05:29:49;101207.59;;;2.15;64.57
74893;BME280;63446;56.272;43.922;2024-01-30T05:32:16;101212.41;;;2.18;64.54
74893;BME280;63446;56.272;43.922;2024-01-30T05:34:42;101209.44;;;2.22;64.60
74893;BME280;63446;56.272;43.922;2024-01-30T05:37:08;101212.47;;;2.25;64.57
74893;BME280;63446;56.272;43.922;2024-01-30T05:39:34;101212.25;;;2.27;64.40
74893;BME280;63446;56.272;43.922;2024-01-30T05:42:02;101218.09;;;2.29;64.59
74893;BME280;63446;56.272;43.922;2024-01-30T05:44:27;101226.56;;;2.31;64.63
74893;BME280;63446;56.272;43.922;2024-01-30T05:46:53;101222.94;;;2.32;64.52
74893;BME280;63446;56.272;43.922;2024-01-30T05:49:19;101218.31;;;2.34;64.63
74893;BME280;63446;56.272;43.922;2024-01-30T05:51:45;101212.28;;;2.33;64.68
74893;BME280;63446;56.272;43.922;2024-01-30T05:54:11;101214.31;;;2.38;64.67
74893;BME280;63446;56.272;43.922;2024-01-30T05:56:36;101217.56;;;2.40;64.64
74893;BME280;63446;56.272;43.922;2024-01-30T05:59:02;101217.94;;;2.37;64.56
74893;BME280;63446;56.272;43.922;2024-01-30T06:01:29;101231.63;;;2.45;64.68
74893;BME280;63446;56.272;43.922;2024-01-30T06:03:55;101229.63;;;2.48;64.62
74893;BME280;63446;56.272;43.922;2024-01-30T06:06:21;101232.84;;;2.50;64.62
74893;BME280;63446;56.272;43.922;2024-01-30T06:08:46;101231.66;;;2.52;64.62
74893;BME280;63446;56.272;43.922;2024-01-30T06:11:12;101224.44;;;2.54;64.63
74893;BME280;63446;56.272;43.922;2024-01-30T06:13:38;101226.84;;;2.56;64.51
74893;BME280;63446;56.272;43.922;2024-01-30T06:16:09;101232.50;;;2.59;64.62
74893;BME280;63446;56.272;43.922;2024-01-30T06:18:36;101234.91;;;2.61;64.62
74893;BME280;63446;56.272;43.922;2024-01-30T06:21:02;101238.34;;;2.61;64.60
74893;BME280;63446;56.272;43.922;2024-01-30T06:23:27;101236.13;;;2.65;64.67
74893;BME280;63446;56.272;43.922;2024-01-30T06:25:53;101239.94;;;2.69;64.57
74893;BME280;63446;56.272;43.922;2024-01-30T06:28:19;101244.78;;;2.72;64.52
74893;BME280;63446;56.272;43.922;2024-01-30T06:30:44;101238.97;;;2.77;64.53
74893;BME280;63446;56.272;43.922;2024-01-30T06:33:12;101243.81;;;2.80;64.69
74893;BME280;63446;56.272;43.922;2024-01-30T06:35:39;101239.22;;;2.82;64.57
74893;BME280;63446;56.272;43.922;2024-01-30T06:38:06;101256.09;;;2.86;64.53
74893;BME280;63446;56.272;43.922;2024-01-30T06:40:32;101253.28;;;2.87;64.58
74893;BME280;63446;56.272;43.922;2024-01-30T06:42:57;101260.94;;;2.89;64.50
74893;BME280;63446;56.272;43.922;2024-01-30T06:45:23;101253.69;;;2.91;64.56
74893;BME280;63446;56.272;43.922;2024-01-30T06:47:49;101262.16;;;2.93;64.66
74893;BME280;63446;56.272;43.922;2024-01-30T06:50:15;101255.91;;;2.94;64.58
74893;BME280;63446;56.272;43.922;2024-01-30T06:52:40;101258.13;;;2.97;64.57
74893;BME280;63446;56.272;43.922;2024-01-30T06:55:07;101259.53;;;3.00;64.67
74893;BME280;63446;56.272;43.922;2024-01-30T06:57:33;101265.38;;;3.02;64.62
74893;BME280;63446;56.272;43.922;2024-01-30T06:59:58;101262.38;;;3.05;64.57
74893;BME280;63446;56.272;43.922;2024-01-30T07:02:24;101260.38;;;3.07;64.52
74893;BME280;63446;56.272;43.922;2024-01-30T07:04:50;101260.59;;;3.12;64.53
74893;BME280;63446;56.272;43.922;2024-01-30T07:07:15;101258.56;;;3.14;64.48
74893;BME280;63446;56.272;43.922;2024-01-30T07:09:41;101259.78;;;3.18;64.63
74893;BME280;63446;56.272;43.922;2024-01-30T07:12:07;101263.44;;;3.24;64.53
74893;BME280;63446;56.272;43.922;2024-01-30T07:14:33;101267.25;;;3.28;64.59
74893;BME280;63446;56.272;43.922;2024-01-30T07:16:59;101271.88;;;3.32;64.44
74893;BME280;63446;56.272;43.922;2024-01-30T07:19:25;101266.28;;;3.35;64.46
74893;BME280;63446;56.272;43.922;2024-01-30T07:21:52;101258.03;;;3.38;64.38
74893;BME280;63446;56.272;43.922;2024-01-30T07:24:17;101265.47;;;3.41;64.48
74893;BME280;63446;56.272;43.922;2024-01-30T07:26:43;101279.16;;;3.43;64.43
74893;BME280;63446;56.272;43.922;2024-01-30T07:29:09;101285.97;;;3.45;64.40
74893;BME280;63446;56.272;43.922;2024-01-30T07:31:35;101283.56;;;3.43;64.44
74893;BME280;63446;56.272;43.922;2024-01-30T07:34:01;101287.00;;;3.43;64.42
74893;BME280;63446;56.272;43.922;2024-01-30T07:36:28;101287.00;;;3.43;64.46
74893;BME280;63446;56.272;43.922;2024-01-30T07:38:54;101278.34;;;3.43;64.49
74893;BME280;63446;56.272;43.922;2024-01-30T07:41:20;101281.75;;;3.43;64.53
74893;BME280;63446;56.272;43.922;2024-01-30T07:43:47;101289.59;;;3.43;64.49
74893;BME280;63446;56.272;43.922;2024-01-30T07:46:13;101292.22;;;3.43;64.51
74893;BME280;63446;56.272;43.922;2024-01-30T07:48:40;101284.16;;;3.45;64.44
74893;BME280;63446;56.272;43.922;2024-01-30T07:51:07;101282.97;;;3.48;64.48
74893;BME280;63446;56.272;43.922;2024-01-30T07:53:33;101280.56;;;3.53;64.50
74893;BME280;63446;56.272;43.922;2024-01-30T07:55:58;101287.22;;;3.62;64.35
74893;BME280;63446;56.272;43.922;2024-01-30T07:58:25;101290.44;;;3.71;64.26
74893;BME280;63446;56.272;43.922;2024-01-30T08:00:53;101288.44;;;3.79;64.25
74893;BME280;63446;56.272;43.922;2024-01-30T08:03:19;101291.25;;;3.84;64.16
74893;BME280;63446;56.272;43.922;2024-01-30T08:05:45;101303.72;;;3.89;64.12
74893;BME280;63446;56.272;43.922;2024-01-30T08:08:10;101302.31;;;3.93;64.01
74893;BME280;63446;56.272;43.922;2024-01-30T08:10:37;101303.50;;;3.90;64.12
74893;BME280;63446;56.272;43.922;2024-01-30T08:13:03;101302.72;;;3.97;64.04
74893;BME280;63446;56.272;43.922;2024-01-30T08:15:29;101310.56;;;3.97;63.80
74893;BME280;63446;56.272;43.922;2024-01-30T08:17:55;101306.94;;;3.98;63.86
74893;BME280;63446;56.272;43.922;2024-01-30T08:20:24;101302.72;;;3.97;63.95
74893;BME280;63446;56.272;43.922;2024-01-30T08:22:51;101298.47;;;3.96;63.99
74893;BME280;63446;56.272;43.922;2024-01-30T08:25:17;101300.09;;;3.97;64.04
74893;BME280;63446;56.272;43.922;2024-01-30T08:27:44;101292.84;;;3.99;64.03
74893;BME280;63446;56.272;43.922;2024-01-30T08:30:12;101295.88;;;4.02;64.12
74893;BME280;63446;56.272;43.922;2024-01-30T08:32:38;101278.16;;;4.04;64.03
74893;BME280;63446;56.272;43.922;2024-01-30T08:35:04;101277.56;;;4.09;64.01
74893;BME280;63446;56.272;43.922;2024-01-30T08:37:30;101275.34;;;4.12;64.01
74893;BME280;63446;56.272;43.922;2024-01-30T08:39:56;101278.16;;;4.18;63.90
74893;BME280;63446;56.272;43.922;2024-01-30T08:42:22;101271.50;;;4.22;64.00
74893;BME280;63446;56.272;43.922;2024-01-30T08:44:49;101280.53;;;4.26;64.00
74893;BME280;63446;56.272;43.922;2024-01-30T08:47:17;101293.44;;;4.27;63.99
74893;BME280;63446;56.272;43.922;2024-01-30T08:49:44;101299.25;;;4.29;64.07
74893;BME280;63446;56.272;43.922;2024-01-30T08:52:11;101297.66;;;4.28;64.06
74893;BME280;63446;56.272;43.922;2024-01-30T08:54:37;101289.41;;;4.31;64.01
74893;BME280;63446;56.272;43.922;2024-01-30T08:57:03;101301.06;;;4.29;63.95
74893;BME280;63446;56.272;43.922;2024-01-30T08:59:30;101307.09;;;4.29;63.98
74893;BME280;63446;56.272;43.922;2024-01-30T09:01:56;101286.78;;;4.25;64.01
74893;BME280;63446;56.272;43.922;2024-01-30T09:04:24;101285.81;;;4.19;64.08
74893;BME280;63446;56.272;43.922;2024-01-30T09:06:51;101285.81;;;4.19;64.01
74893;BME280;63446;56.272;43.922;2024-01-30T09:09:17;101288.59;;;4.18;64.15
74893;BME280;63446;56.272;43.922;2024-01-30T09:11:43;101280.19;;;4.15;64.13
74893;BME280;63446;56.272;43.922;2024-01-30T09:14:10;101296.66;;;4.16;64.22
74893;BME280;63446;56.272;43.922;2024-01-30T09:16:37;101305.09;;;4.18;64.37
74893;BME280;63446;56.272;43.922;2024-01-30T09:19:04;101296.28;;;4.19;64.57
74893;BME280;63446;56.272;43.922;2024-01-30T09:21:29;101304.31;;;4.24;64.57
74893;BME280;63446;56.272;43.922;2024-01-30T09:24:02;101310.13;;;4.26;64.70
74893;BME280;63446;56.272;43.922;2024-01-30T09:26:30;101297.88;;;4.27;64.69
74893;BME280;63446;56.272;43.922;2024-01-30T09:28:55;101297.88;;;4.27;64.60
74893;BME280;63446;56.272;43.922;2024-01-30T09:31:21;101304.72;;;4.28;64.56
74893;BME280;63446;56.272;43.922;2024-01-30T09:33:47;101295.63;;;4.30;64.55
74893;BME280;63446;56.272;43.922;2024-01-30T09:36:15;101300.28;;;4.35;64.51
74893;BME280;63446;56.272;43.922;2024-01-30T09:38:44;101306.72;;;4.39;64.43
74893;BME280;63446;56.272;43.922;2024-01-30T09:41:11;101302.84;;;4.41;64.41
74893;BME280;63446;56.272;43.922;2024-01-30T09:43:38;101306.88;;;4.44;64.65
74893;BME280;63446;56.272;43.922;2024-01-30T09:46:12;101304.66;;;4.48;64.63
74893;BME280;63446;56.272;43.922;2024-01-30T09:48:48;101311.91;;;4.52;64.58
74893;BME280;63446;56.272;43.922;2024-01-30T09:51:15;101318.34;;;4.56;64.40
74893;BME280;63446;56.272;43.922;2024-01-30T09:53:42;101311.50;;;4.62;64.35
74893;BME280;63446;56.272;43.922;2024-01-30T09:56:10;101309.66;;;4.69;64.20
74893;BME280;63446;56.272;43.922;2024-01-30T09:58:37;101311.44;;;4.75;64.14
74893;BME280;63446;56.272;43.922;2024-01-30T10:01:03;101306.19;;;4.82;63.87
74893;BME280;63446;56.272;43.922;2024-01-30T10:03:29;101309.59;;;4.89;63.78
74893;BME280;63446;56.272;43.922;2024-01-30T10:05:55;101314.41;;;4.92;63.57
74893;BME280;63446;56.272;43.922;2024-01-30T10:08:21;101314.19;;;5.00;63.28
74893;BME280;63446;56.272;43.922;2024-01-30T10:10:49;101321.59;;;5.03;63.12
74893;BME280;63446;56.272;43.922;2024-01-30T10:13:16;101319.97;;;5.09;63.08
74893;BME280;63446;56.272;43.922;2024-01-30T10:15:42;101328.81;;;5.14;63.06
74893;BME280;63446;56.272;43.922;2024-01-30T10:18:08;101320.34;;;5.19;62.86
74893;BME280;63446;56.272;43.922;2024-01-30T10:20:37;101327.75;;;5.29;62.71
74893;BME280;63446;56.272;43.922;2024-01-30T10:23:03;101333.75;;;5.36;62.58
74893;BME280;63446;56.272;43.922;2024-01-30T10:25:32;101331.91;;;5.43;62.35
74893;BME280;63446;56.272;43.922;2024-01-30T10:27:58;101323.19;;;5.49;62.07
74893;BME280;63446;56.272;43.922;2024-01-30T10:30:24;101323.16;;;5.56;62.04
74893;BME280;63446;56.272;43.922;2024-01-30T10:32:51;101320.50;;;5.62;61.78
74893;BME280;63446;56.272;43.922;2024-01-30T10:35:17;101332.75;;;5.69;61.57
74893;BME280;63446;56.272;43.922;2024-01-30T10:37:47;101334.75;;;5.73;61.44
74893;BME280;63446;56.272;43.922;2024-01-30T10:40:14;101320.19;;;5.77;61.29
74893;BME280;63446;56.272;43.922;2024-01-30T10:42:43;101324.00;;;5.81;61.16
74893;BME280;63446;56.272;43.922;2024-01-30T10:45:13;101327.19;;;5.83;61.01
74893;BME280;63446;56.272;43.922;2024-01-30T10:47:55;101326.78;;;5.86;60.81
74893;BME280;63446;56.272;43.922;2024-01-30T10:50:25;101338.66;;;5.89;60.63
74893;BME280;63446;56.272;43.922;2024-01-30T10:52:52;101340.91;;;5.92;60.62
74893;BME280;63446;56.272;43.922;2024-01-30T10:55:18;101340.28;;;5.90;60.54
74893;BME280;63446;56.272;43.922;2024-01-30T10:57:44;101346.94;;;5.93;60.58
74893;BME280;63446;56.272;43.922;2024-01-30T11:00:12;101340.69;;;5.94;60.52
74893;BME280;63446;56.272;43.922;2024-01-30T11:02:40;101341.06;;;5.91;60.19
74893;BME280;63446;56.272;43.922;2024-01-30T11:05:07;101347.75;;;5.93;60.21
74893;BME280;63446;56.272;43.922;2024-01-30T11:07:34;101353.78;;;5.94;60.09
74893;BME280;63446;56.272;43.922;2024-01-30T11:10:02;101345.94;;;5.94;59.83
74893;BME280;63446;56.272;43.922;2024-01-30T11:12:37;101344.91;;;5.95;59.80
74893;BME280;63446;56.272;43.922;2024-01-30T11:15:12;101336.22;;;5.94;59.98
74893;BME280;63446;56.272;43.922;2024-01-30T11:20:35;101340.91;;;5.85;59.70
74893;BME280;63446;56.272;43.922;2024-01-30T11:23:02;101344.19;;;5.81;59.60
74893;BME280;63446;56.272;43.922;2024-01-30T11:25:32;101341.59;;;5.74;59.82
74893;BME280;63446;56.272;43.922;2024-01-30T11:27:58;101345.66;;;5.70;60.04
74893;BME280;63446;56.272;43.922;2024-01-30T11:30:26;101341.66;;;5.61;60.15
74893;BME280;63446;56.272;43.922;2024-01-30T11:35:44;101357.06;;;5.51;60.68
74893;BME280;63446;56.272;43.922;2024-01-30T11:38:13;101362.34;;;5.44;60.86
74893;BME280;63446;56.272;43.922;2024-01-30T11:40:40;101368.63;;;5.36;61.14
74893;BME280;63446;56.272;43.922;2024-01-30T11:43:08;101367.84;;;5.29;61.27
74893;BME280;63446;56.272;43.922;2024-01-30T11:45:35;101384.81;;;5.27;61.54
74893;BME280;63446;56.272;43.922;2024-01-30T11:48:03;101383.41;;;5.24;61.66
74893;BME280;63446;56.272;43.922;2024-01-30T11:50:33;101395.09;;;5.22;61.72
74893;BME280;63446;56.272;43.922;2024-01-30T11:53:00;101402.16;;;5.21;61.60
74893;BME280;63446;56.272;43.922;2024-01-30T11:55:27;101398.13;;;5.19;61.80
74893;BME280;63446;56.272;43.922;2024-01-30T11:57:58;101397.34;;;5.18;61.61
74893;BME280;63446;56.272;43.922;2024-01-30T12:00:24;101394.72;;;5.18;61.73
74893;BME280;63446;56.272;43.922;2024-01-30T12:02:52;101407.22;;;5.16;61.73
74893;BME280;63446;56.272;43.922;2024-01-30T12:05:22;101410.88;;;5.15;61.78
74893;BME280;63446;56.272;43.922;2024-01-30T12:07:48;101407.84;;;5.11;61.81
74893;BME280;63446;56.272;43.922;2024-01-30T12:10:14;101396.75;;;5.09;61.73
74893;BME280;63446;56.272;43.922;2024-01-30T12:12:43;101408.88;;;5.04;61.50
74893;BME280;63446;56.272;43.922;2024-01-30T12:15:09;101399.22;;;4.98;61.56
74893;BME280;63446;56.272;43.922;2024-01-30T12:17:36;101402.47;;;4.86;61.68
74893;BME280;63446;56.272;43.922;2024-01-30T12:20:05;101404.69;;;4.76;61.82
74893;BME280;63446;56.272;43.922;2024-01-30T12:25:08;101405.75;;;4.49;62.27
74893;BME280;63446;56.272;43.922;2024-01-30T12:27:35;101405.94;;;4.34;62.53
74893;BME280;63446;56.272;43.922;2024-01-30T12:30:05;101403.91;;;4.23;62.64
74893;BME280;63446;56.272;43.922;2024-01-30T12:32:31;101410.56;;;4.12;62.88
74893;BME280;63446;56.272;43.922;2024-01-30T12:34:57;101407.94;;;3.99;62.82
74893;BME280;63446;56.272;43.922;2024-01-30T12:37:24;101406.53;;;3.89;62.91
74893;BME280;63446;56.272;43.922;2024-01-30T12:39:53;101416.53;;;3.79;62.95
74893;BME280;63446;56.272;43.922;2024-01-30T12:42:20;101422.97;;;3.70;63.04
74893;BME280;63446;56.272;43.922;2024-01-30T12:44:48;101425.13;;;3.60;63.17
74893;BME280;63446;56.272;43.922;2024-01-30T12:47:15;101424.09;;;3.48;63.33
74893;BME280;63446;56.272;43.922;2024-01-30T12:49:43;101429.50;;;3.39;63.45
74893;BME280;63446;56.272;43.922;2024-01-30T12:52:14;101425.41;;;3.30;63.64
74893;BME280;63446;56.272;43.922;2024-01-30T12:54:40;101433.63;;;3.21;63.70